createdAt,value
2022-09-06T00:01:10.123Z,13.48
2022-09-06T00:04:15.584Z,13.51
2022-09-06T00:07:18.162Z,13.61
2022-09-06T00:10:20.699Z,13.64
2022-09-06T00:13:23.151Z,13.68
2022-09-06T00:16:30.162Z,13.69
2022-09-06T00:19:34.311Z,13.74
2022-09-06T00:22:36.985Z,13.77
2022-09-06T00:25:39.434Z,13.81
2022-09-06T00:28:42.099Z,13.83
2022-09-06T00:31:44.547Z,13.90
2022-09-06T00:34:48.312Z,13.91
2022-09-06T00:37:50.810Z,13.89
2022-09-06T00:40:53.286Z,13.87
2022-09-06T00:43:55.835Z,13.88
2022-09-06T00:46:58.280Z,13.84
2022-09-06T00:50:03.537Z,13.77
2022-09-06T00:53:06.033Z,13.64
2022-09-06T00:56:08.577Z,13.54
2022-09-06T00:59:11.187Z,13.48
2022-09-06T01:02:14.047Z,13.41
2022-09-06T01:05:18.634Z,13.31
2022-09-06T01:08:29.942Z,13.21
2022-09-06T01:11:47.306Z,13.19
2022-09-06T01:15:02.900Z,13.09
2022-09-06T01:18:18.158Z,13.04
2022-09-06T01:21:33.836Z,12.98
2022-09-06T01:25:05.126Z,12.95
2022-09-06T01:28:30.411Z,12.81
2022-09-06T01:31:39.862Z,12.76
2022-09-06T01:34:48.813Z,12.74
2022-09-06T01:37:51.556Z,12.67
2022-09-06T01:40:54.011Z,12.65
2022-09-06T01:43:58.699Z,12.63
2022-09-06T01:47:14.711Z,12.55
2022-09-06T01:50:32.649Z,12.51
2022-09-06T01:54:04.836Z,12.37
2022-09-06T01:57:16.370Z,12.32
2022-09-06T02:00:22.556Z,12.37
2022-09-06T02:03:33.291Z,12.42
2022-09-06T02:06:40.922Z,12.42
2022-09-06T02:09:47.075Z,12.33
2022-09-06T02:12:54.799Z,12.23
2022-09-06T02:16:02.905Z,12.20
2022-09-06T02:19:12.978Z,12.11
2022-09-06T02:22:19.690Z,12.08
2022-09-06T02:25:33.651Z,12.02
2022-09-06T02:28:36.477Z,12.03
2022-09-06T02:31:45.269Z,12.05
2022-09-06T02:34:48.188Z,12.22
2022-09-06T02:37:51.629Z,12.15
2022-09-06T02:40:56.405Z,12.22
2022-09-06T02:43:58.859Z,12.25
2022-09-06T02:47:03.459Z,12.31
2022-09-06T02:50:08.160Z,12.38
2022-09-06T02:53:12.491Z,12.51
2022-09-06T02:56:15.041Z,12.42
2022-09-06T02:59:17.519Z,12.45
2022-09-06T03:02:21.339Z,12.49
2022-09-06T03:05:23.983Z,12.56
2022-09-06T03:08:29.249Z,12.57
2022-09-06T03:11:31.769Z,12.54
2022-09-06T03:14:36.004Z,12.54
2022-09-06T03:17:40.108Z,12.52
2022-09-06T03:20:42.575Z,12.47
2022-09-06T03:23:45.837Z,12.41
2022-09-06T03:26:48.333Z,12.31
2022-09-06T03:29:50.799Z,12.27
2022-09-06T03:32:55.001Z,12.19
2022-09-06T03:35:59.294Z,12.13
2022-09-06T03:39:01.750Z,12.02
2022-09-06T03:42:04.511Z,11.95
2022-09-06T03:45:07.931Z,11.95
2022-09-06T03:48:11.699Z,12.04
2022-09-06T03:51:14.167Z,12.04
2022-09-06T03:54:16.613Z,11.97
2022-09-06T03:57:19.143Z,11.83
2022-09-06T04:00:21.799Z,11.75
2022-09-06T04:03:25.697Z,11.71
2022-09-06T04:06:28.317Z,11.66
2022-09-06T04:09:30.844Z,11.66
2022-09-06T04:12:34.895Z,11.62
2022-09-06T04:15:37.593Z,11.59
2022-09-06T04:18:41.547Z,11.60
2022-09-06T04:21:44.058Z,11.41
2022-09-06T04:24:46.529Z,11.35
2022-09-06T04:27:48.992Z,11.36
2022-09-06T04:30:54.700Z,11.33
2022-09-06T04:33:58.508Z,11.26
2022-09-06T04:37:00.959Z,11.12
2022-09-06T04:40:04.444Z,11.23
2022-09-06T04:43:06.961Z,11.36
2022-09-06T04:46:15.632Z,11.59
2022-09-06T04:49:19.482Z,11.72
2022-09-06T04:52:22.054Z,12.39
2022-09-06T04:55:26.386Z,13.15
2022-09-06T04:58:28.982Z,13.72
2022-09-06T05:01:31.641Z,14.04
2022-09-06T05:04:35.475Z,14.38
2022-09-06T05:07:37.942Z,14.62
2022-09-06T05:10:40.412Z,14.87
2022-09-06T05:13:43.224Z,14.94
2022-09-06T05:16:46.651Z,14.89
2022-09-06T05:19:50.496Z,14.59
2022-09-06T05:22:54.094Z,14.80
2022-09-06T05:25:56.548Z,15.05
2022-09-06T05:28:59.075Z,15.61
2022-09-06T05:32:01.891Z,16.14
2022-09-06T05:35:06.181Z,16.20
2022-09-06T05:38:08.637Z,16.49
2022-09-06T05:41:11.096Z,16.53
2022-09-06T05:44:14.127Z,16.70
2022-09-06T05:47:16.730Z,17.09
2022-09-06T05:50:20.510Z,17.19
2022-09-06T05:53:22.963Z,17.15
2022-09-06T05:56:25.570Z,17.06
2022-09-06T05:59:28.044Z,16.88
2022-09-06T06:02:30.575Z,16.91
2022-09-06T06:05:34.403Z,17.36
2022-09-06T06:08:37.298Z,16.84
2022-09-06T06:11:40.804Z,16.61
2022-09-06T06:14:43.307Z,16.45
2022-09-06T06:17:45.852Z,16.38
2022-09-06T06:20:49.668Z,16.05
2022-09-06T06:23:54.799Z,16.04
2022-09-06T06:26:57.246Z,15.99
2022-09-06T06:29:59.695Z,15.95
2022-09-06T06:33:02.541Z,16.29
2022-09-06T06:36:08.494Z,16.46
2022-09-06T06:39:10.986Z,16.56
2022-09-06T06:42:13.713Z,16.64
2022-09-06T06:45:16.295Z,16.93
2022-09-06T06:48:18.848Z,17.03
2022-09-06T06:51:24.436Z,17.47
2022-09-06T06:54:26.931Z,17.22
2022-09-06T06:57:29.376Z,17.13
2022-09-06T07:00:31.932Z,17.01
2022-09-06T07:03:34.412Z,17.02
2022-09-06T07:13:34.970Z,17.21
2022-09-06T07:16:37.522Z,17.57
2022-09-06T07:26:30.760Z,18.51
2022-09-06T07:29:33.478Z,19.16
2022-09-06T07:32:36.116Z,19.20
2022-09-06T07:35:38.595Z,19.70
2022-09-06T07:38:42.691Z,19.48
2022-09-06T07:41:45.159Z,19.65
2022-09-06T07:44:47.713Z,19.74
2022-09-06T07:51:07.213Z,20.57
2022-09-06T07:54:29.872Z,20.92
2022-09-06T07:57:33.375Z,20.69
2022-09-06T08:00:35.904Z,20.66
2022-09-06T08:03:38.400Z,20.76
2022-09-06T08:10:08.027Z,21.07
2022-09-06T08:13:10.500Z,21.31
2022-09-06T08:16:14.038Z,21.37
2022-09-06T08:19:18.287Z,21.06
2022-09-06T08:22:20.776Z,21.23
2022-09-06T08:25:25.759Z,21.98
2022-09-06T08:28:28.917Z,22.36
2022-09-06T08:31:33.409Z,22.06
2022-09-06T08:34:35.940Z,22.14
2022-09-06T08:37:38.481Z,22.15
2022-09-06T08:40:42.295Z,21.74
2022-09-06T08:47:17.491Z,21.84
2022-09-06T08:50:20.772Z,21.81
2022-09-06T08:53:23.244Z,21.80
2022-09-06T08:56:33.494Z,21.65
2022-09-06T08:59:39.811Z,21.43
2022-09-06T09:02:45.071Z,21.39
2022-09-06T09:05:51.272Z,21.62
2022-09-06T09:09:04.058Z,21.43
2022-09-06T09:12:09.840Z,21.58
2022-09-06T09:15:15.167Z,22.29
2022-09-06T09:18:23.974Z,22.88
2022-09-06T09:21:31.348Z,22.81
2022-09-06T09:24:34.632Z,22.78
2022-09-06T09:27:39.581Z,23.26
2022-09-06T09:30:51.303Z,23.23
2022-09-06T09:33:53.809Z,22.87
2022-09-06T09:40:39.026Z,22.97
2022-09-06T09:43:55.294Z,23.08
2022-09-06T09:46:57.809Z,22.93
2022-09-06T09:50:00.868Z,23.25
2022-09-06T09:53:10.202Z,22.62
2022-09-06T09:56:12.726Z,22.24
2022-09-06T09:59:26.748Z,22.45
2022-09-06T10:02:32.379Z,22.29
2022-09-06T10:05:34.894Z,22.39
2022-09-06T10:08:41.960Z,22.52
2022-09-06T10:11:55.175Z,22.64
2022-09-06T10:15:02.300Z,22.41
2022-09-06T10:18:17.998Z,22.60
2022-09-06T10:21:22.386Z,22.60
2022-09-06T10:24:32.111Z,22.29
2022-09-06T10:27:35.886Z,22.30
2022-09-06T10:30:45.697Z,22.12
2022-09-06T10:34:01.511Z,22.17
2022-09-06T10:37:17.494Z,22.20
2022-09-06T10:40:30.921Z,22.23
2022-09-06T10:43:43.708Z,22.37
2022-09-06T10:46:51.162Z,22.47
2022-09-06T10:49:57.117Z,22.94
2022-09-06T10:53:08.439Z,23.58
2022-09-06T10:56:13.868Z,24.26
2022-09-06T10:59:38.454Z,24.20
2022-09-06T11:02:48.692Z,23.73
2022-09-06T11:05:55.389Z,23.76
2022-09-06T11:09:03.694Z,23.89
2022-09-06T11:12:11.798Z,23.62
2022-09-06T11:15:15.975Z,23.58
2022-09-06T11:18:28.176Z,23.51
2022-09-06T11:22:13.006Z,23.98
2022-09-06T11:25:43.198Z,24.91
2022-09-06T11:28:48.593Z,25.29
2022-09-06T11:35:28.082Z,26.68
2022-09-06T11:38:30.940Z,26.09
2022-09-06T11:41:36.659Z,25.80
2022-09-06T11:45:17.982Z,25.24
2022-09-06T11:48:37.139Z,24.42
2022-09-06T11:51:42.689Z,24.00
2022-09-06T11:54:48.274Z,23.88
2022-09-06T11:57:55.475Z,24.59
2022-09-06T12:01:40.885Z,24.47
2022-09-06T12:05:22.471Z,24.30
2022-09-06T12:08:32.805Z,24.10
2022-09-06T12:11:37.714Z,23.49
2022-09-06T12:14:42.617Z,23.60
2022-09-06T12:17:48.617Z,23.96
2022-09-06T12:21:04.275Z,24.17
2022-09-06T12:24:09.360Z,24.15
2022-09-06T12:27:16.616Z,23.96
2022-09-06T12:30:34.308Z,24.07
2022-09-06T12:33:38.808Z,23.97
2022-09-06T12:36:55.244Z,23.73
2022-09-06T12:39:59.784Z,23.89
2022-09-06T12:43:05.310Z,23.73
2022-09-06T12:46:08.619Z,23.86
2022-09-06T12:49:13.088Z,23.99
2022-09-06T12:52:19.818Z,24.20
2022-09-06T12:55:28.043Z,24.00
2022-09-06T12:58:30.600Z,23.68
2022-09-06T13:01:35.805Z,23.62
2022-09-06T13:04:42.991Z,23.68
2022-09-06T13:07:49.998Z,23.79
2022-09-06T13:10:54.179Z,23.72
2022-09-06T13:13:57.124Z,23.57
2022-09-06T13:16:59.995Z,23.31
2022-09-06T13:20:12.956Z,23.29
2022-09-06T13:23:21.866Z,23.60
2022-09-06T13:26:37.273Z,23.63
2022-09-06T13:29:39.722Z,23.56
2022-09-06T13:32:47.965Z,23.61
2022-09-06T13:35:53.726Z,23.49
2022-09-06T13:38:56.501Z,23.32
2022-09-06T13:42:03.788Z,23.47
2022-09-06T13:45:24.600Z,23.18
2022-09-06T13:48:29.259Z,22.91
2022-09-06T13:51:34.031Z,22.96
2022-09-06T13:54:36.875Z,22.97
2022-09-06T13:57:40.651Z,23.00
2022-09-06T14:00:43.140Z,23.08
2022-09-06T14:03:45.598Z,23.24
2022-09-06T14:06:48.800Z,23.62
2022-09-06T14:09:51.287Z,23.69
2022-09-06T14:12:55.475Z,23.71
2022-09-06T14:15:57.982Z,24.06
2022-09-06T14:19:00.783Z,24.34
2022-09-06T14:22:04.930Z,24.60
2022-09-06T14:25:08.182Z,24.63
2022-09-06T14:28:11.982Z,24.35
2022-09-06T14:31:16.712Z,24.35
2022-09-06T14:34:19.356Z,23.72
2022-09-06T14:37:22.575Z,23.51
2022-09-06T14:40:25.175Z,22.92
2022-09-06T14:43:29.057Z,22.79
2022-09-06T14:46:31.906Z,22.81
2022-09-06T14:49:34.442Z,22.77
2022-09-06T14:52:37.258Z,22.62
2022-09-06T14:55:39.717Z,22.51
2022-09-06T14:58:44.220Z,22.49
2022-09-06T15:01:46.786Z,22.60
2022-09-06T15:04:49.336Z,22.42
2022-09-06T15:07:52.297Z,22.45
2022-09-06T15:10:55.248Z,22.54
2022-09-06T15:13:59.610Z,22.50
2022-09-06T15:17:04.129Z,22.38
2022-09-06T15:20:07.239Z,22.35
2022-09-06T15:23:25.842Z,22.34
2022-09-06T15:26:28.616Z,22.39
2022-09-06T15:29:32.404Z,22.40
2022-09-06T15:32:34.930Z,22.41
2022-09-06T15:35:39.348Z,22.39
2022-09-06T15:38:43.630Z,22.32
2022-09-06T15:41:46.224Z,22.16
2022-09-06T15:44:50.429Z,22.03
2022-09-06T15:47:53.956Z,21.99
2022-09-06T15:50:56.443Z,21.92
2022-09-06T15:54:00.182Z,21.89
2022-09-06T15:57:03.760Z,21.85
2022-09-06T16:00:09.152Z,21.75
2022-09-06T16:03:12.088Z,21.69
2022-09-06T16:09:27.193Z,21.60
2022-09-06T16:12:29.680Z,21.56
2022-09-06T16:15:33.525Z,21.56
2022-09-06T16:18:38.003Z,21.50
2022-09-06T16:21:42.660Z,21.45
2022-09-06T16:24:45.353Z,21.40
2022-09-06T16:27:47.811Z,21.32
2022-09-06T16:30:51.635Z,21.29
2022-09-06T16:33:54.779Z,21.27
2022-09-06T16:36:57.263Z,21.24
2022-09-06T16:39:59.829Z,21.18
2022-09-06T16:43:03.148Z,21.12
2022-09-06T16:46:07.872Z,21.11
2022-09-06T16:49:10.630Z,21.02
2022-09-06T16:52:14.267Z,20.95
2022-09-06T16:55:16.864Z,20.86
2022-09-06T16:58:19.386Z,20.78
2022-09-06T17:01:24.346Z,20.72
2022-09-06T17:04:27.004Z,20.63
2022-09-06T17:07:29.570Z,20.54
2022-09-06T17:10:32.198Z,20.48
2022-09-06T17:13:34.987Z,20.44
2022-09-06T17:16:56.834Z,20.37
2022-09-06T17:19:59.354Z,20.28
2022-09-06T17:23:01.810Z,20.19
2022-09-06T17:26:05.474Z,20.12
2022-09-06T17:29:08.539Z,20.05
2022-09-06T17:32:12.302Z,19.98
2022-09-06T17:35:14.806Z,19.92
2022-09-06T17:38:17.279Z,19.87
2022-09-06T17:41:24.195Z,19.80
2022-09-06T17:44:27.351Z,19.74
2022-09-06T17:47:31.880Z,19.70
2022-09-06T17:50:34.974Z,19.66
2022-09-06T17:53:37.978Z,19.62
2022-09-06T17:56:41.380Z,19.58
2022-09-06T17:59:44.077Z,19.53
2022-09-06T18:02:48.239Z,19.51
2022-09-06T18:05:50.748Z,19.43
2022-09-06T18:08:55.490Z,19.37
2022-09-06T18:11:58.913Z,19.37
2022-09-06T18:15:02.277Z,19.30
2022-09-06T18:18:06.416Z,19.26
2022-09-06T18:21:08.922Z,19.20
2022-09-06T18:24:13.651Z,19.13
2022-09-06T18:27:16.554Z,19.00
2022-09-06T18:30:19.058Z,18.91
2022-09-06T18:33:24.836Z,18.79
2022-09-06T18:36:31.966Z,18.67
2022-09-06T18:39:35.062Z,18.64
2022-09-06T18:42:37.580Z,18.67
2022-09-06T18:45:40.368Z,18.63
2022-09-06T18:48:44.267Z,18.58
2022-09-06T18:51:46.863Z,18.61
2022-09-06T18:54:49.964Z,18.65
2022-09-06T18:57:53.529Z,18.61
2022-09-06T19:01:02.834Z,18.65
2022-09-06T19:04:07.988Z,18.67
2022-09-06T19:07:10.513Z,18.68
2022-09-06T19:10:13.132Z,18.66
2022-09-06T19:13:15.669Z,18.69
2022-09-06T19:16:18.352Z,18.66
2022-09-06T19:19:23.173Z,18.64
2022-09-06T19:22:26.559Z,18.56
2022-09-06T19:25:29.481Z,18.59
2022-09-06T19:28:32.931Z,18.63
2022-09-06T19:31:37.760Z,18.65
2022-09-06T19:34:41.994Z,18.64
2022-09-06T19:37:44.503Z,18.57
2022-09-06T19:40:47.114Z,18.64
2022-09-06T19:43:51.612Z,18.66
2022-09-06T19:46:54.154Z,18.63
2022-09-06T19:49:58.014Z,18.63
2022-09-06T19:53:04.164Z,18.59
2022-09-06T19:56:10.537Z,18.52
2022-09-06T19:59:14.000Z,18.48
2022-09-06T20:02:16.479Z,18.38
2022-09-06T20:05:20.312Z,18.33
2022-09-06T20:08:22.835Z,18.30
2022-09-06T20:11:27.183Z,18.28
2022-09-06T20:14:29.849Z,18.29
2022-09-06T20:17:34.147Z,18.27
2022-09-06T20:20:38.428Z,18.24
2022-09-06T20:23:41.455Z,18.20
2022-09-06T20:26:43.928Z,18.18
2022-09-06T20:29:46.417Z,18.14
2022-09-06T20:32:48.891Z,18.08
2022-09-06T20:35:56.939Z,18.00
2022-09-06T20:38:59.472Z,18.01
2022-09-06T20:42:01.958Z,17.97
2022-09-06T20:45:04.791Z,17.97
2022-09-06T20:48:08.502Z,17.90
2022-09-06T20:51:15.534Z,17.92
2022-09-06T20:54:18.108Z,17.88
2022-09-06T20:57:20.600Z,17.85
2022-09-06T21:00:24.073Z,17.78
2022-09-06T21:03:27.862Z,17.73
2022-09-06T21:06:33.734Z,17.78
2022-09-06T21:09:36.904Z,17.76
2022-09-06T21:12:39.373Z,17.75
2022-09-06T21:15:41.923Z,17.80
2022-09-06T21:18:44.444Z,17.74
2022-09-06T21:21:48.542Z,17.72
2022-09-06T21:24:51.012Z,17.68
2022-09-06T21:27:55.797Z,17.70
2022-09-06T21:31:02.830Z,17.76
2022-09-06T21:34:15.676Z,17.87
2022-09-06T21:37:21.211Z,17.87
2022-09-06T21:40:23.659Z,17.88
2022-09-06T21:43:26.637Z,17.92
2022-09-06T21:46:35.324Z,17.93
2022-09-06T21:49:38.427Z,17.96
2022-09-06T21:52:42.226Z,18.01
2022-09-06T21:55:45.262Z,17.99
2022-09-06T21:58:51.370Z,18.00
2022-09-06T22:01:54.324Z,17.95
2022-09-06T22:04:56.890Z,17.99
2022-09-06T22:08:01.125Z,17.99
2022-09-06T22:11:09.332Z,18.03
2022-09-06T22:14:15.003Z,17.94
2022-09-06T22:17:17.501Z,17.95
2022-09-06T22:20:22.059Z,17.93
2022-09-06T22:23:26.028Z,17.95
2022-09-06T22:26:30.686Z,17.90
2022-09-06T22:29:33.143Z,17.88
2022-09-06T22:32:35.969Z,17.90
2022-09-06T22:35:38.455Z,17.87
2022-09-06T22:38:42.254Z,17.82
2022-09-06T22:41:44.809Z,17.75
2022-09-06T22:44:47.343Z,17.75
2022-09-06T22:47:50.980Z,17.70
2022-09-06T22:50:53.613Z,17.58
2022-09-06T22:53:57.411Z,17.65
2022-09-06T22:57:00.308Z,17.64
2022-09-06T23:00:03.938Z,17.62
2022-09-06T23:03:06.400Z,17.63
2022-09-06T23:06:09.663Z,17.63
2022-09-06T23:09:13.462Z,17.62
2022-09-06T23:12:15.947Z,17.60
2022-09-06T23:15:18.553Z,17.56
2022-09-06T23:18:21.002Z,17.58
2022-09-06T23:21:25.155Z,17.58
2022-09-06T23:24:29.107Z,17.50
2022-09-06T23:27:31.610Z,17.45
2022-09-06T23:30:37.500Z,17.50
2022-09-06T23:33:40.546Z,17.43
2022-09-06T23:36:43.085Z,17.41
2022-09-06T23:39:46.931Z,17.47
2022-09-06T23:42:49.415Z,17.44
2022-09-06T23:45:51.952Z,17.46
2022-09-06T23:48:54.449Z,17.37
2022-09-06T23:51:56.898Z,17.38
2022-09-06T23:55:00.661Z,17.34
2022-09-06T23:58:03.172Z,17.33
